createdAt,value
2016-11-19T00:00:30.023Z,54.34
2016-11-19T00:01:30.010Z,54.24
2016-11-19T00:02:29.677Z,54.05
2016-11-19T00:03:29.969Z,54.05
2016-11-19T00:04:29.956Z,54.24
2016-11-19T00:05:29.943Z,54.05
2016-11-19T00:06:29.924Z,54.24
2016-11-19T00:07:29.907Z,54.24
2016-11-19T00:08:29.893Z,54.14
2016-11-19T00:09:29.874Z,54.24
2016-11-19T00:10:29.543Z,54.34
2016-11-19T00:11:29.838Z,54.05
2016-11-19T00:12:29.828Z,54.34
2016-11-19T00:13:29.810Z,54.34
2016-11-19T00:14:29.802Z,54.34
2016-11-19T00:15:29.777Z,54.43
2016-11-19T00:16:29.760Z,54.43
2016-11-19T00:17:29.757Z,54.34
2016-11-19T00:18:29.413Z,54.34
2016-11-19T00:19:29.405Z,54.53
2016-11-19T00:20:29.697Z,54.34
2016-11-19T00:21:29.364Z,54.43
2016-11-19T00:22:29.666Z,54.43
2016-11-19T00:23:29.647Z,54.43
2016-11-19T00:24:29.632Z,54.43
2016-11-19T00:25:29.301Z,54.05
2016-11-19T00:26:29.600Z,54.34
2016-11-19T00:27:29.583Z,54.34
2016-11-19T00:28:29.568Z,54.43
2016-11-19T00:29:29.552Z,54.53
2016-11-19T00:30:29.542Z,54.34
2016-11-19T00:31:29.522Z,54.43
2016-11-19T00:32:29.185Z,54.72
2016-11-19T00:33:29.490Z,54.05
2016-11-19T00:34:29.469Z,54.53
2016-11-19T00:35:29.447Z,54.43
2016-11-19T00:36:29.438Z,54.53
2016-11-19T00:37:29.423Z,54.53
2016-11-19T00:38:29.402Z,54.43
2016-11-19T00:39:29.076Z,54.24
2016-11-19T00:40:29.378Z,54.34
2016-11-19T00:41:29.360Z,54.43
2016-11-19T00:42:29.343Z,54.43
2016-11-19T00:43:29.325Z,54.43
2016-11-19T00:44:29.311Z,54.43
2016-11-19T00:45:29.294Z,54.63
2016-11-19T00:46:29.278Z,54.53
2016-11-19T00:47:29.264Z,54.43
2016-11-19T00:48:29.247Z,54.53
2016-11-19T00:49:29.229Z,54.53
2016-11-19T00:50:29.212Z,54.43
2016-11-19T00:51:29.191Z,54.53
2016-11-19T00:52:28.865Z,54.43
2016-11-19T00:53:29.196Z,54.43
2016-11-19T00:54:29.145Z,54.63
2016-11-19T00:55:29.130Z,54.14
2016-11-19T00:56:29.115Z,54.43
2016-11-19T00:57:29.094Z,54.43
2016-11-19T00:58:29.079Z,54.53
2016-11-19T00:59:29.065Z,54.72
2016-11-19T01:00:29.044Z,54.53
2016-11-19T01:01:29.032Z,54.63
2016-11-19T01:02:29.016Z,54.53
2016-11-19T01:03:29.018Z,54.34
2016-11-19T01:04:28.667Z,54.72
2016-11-19T01:05:28.968Z,54.63
2016-11-19T01:06:28.951Z,54.63
2016-11-19T01:07:28.938Z,54.53
2016-11-19T01:08:28.915Z,54.43
2016-11-19T01:09:28.896Z,54.43
2016-11-19T01:10:28.889Z,54.43
2016-11-19T01:11:28.866Z,54.43
2016-11-19T01:12:28.854Z,54.43
2016-11-19T01:13:28.839Z,54.24
2016-11-19T01:14:28.818Z,54.14
2016-11-19T01:15:28.803Z,54.14
2016-11-19T01:16:28.790Z,54.34
2016-11-19T01:17:28.768Z,54.24
2016-11-19T01:18:28.949Z,54.31
2016-11-19T01:19:28.420Z,53.92
2016-11-19T01:20:28.720Z,54.02
2016-11-19T01:21:28.704Z,54.12
2016-11-19T01:22:28.687Z,54.14
2016-11-19T01:23:28.669Z,54.53
2016-11-19T01:24:28.341Z,54.22
2016-11-19T01:25:28.637Z,54.34
2016-11-19T01:26:28.305Z,54.43
2016-11-19T01:27:28.611Z,54.24
2016-11-19T01:28:28.276Z,54.31
2016-11-19T01:29:28.584Z,54.41
2016-11-19T01:30:28.556Z,54.31
2016-11-19T01:31:28.548Z,54.41
2016-11-19T01:32:28.525Z,54.41
2016-11-19T01:33:28.512Z,54.31
2016-11-19T01:34:28.491Z,54.41
2016-11-19T01:35:28.475Z,54.31
2016-11-19T01:36:28.464Z,54.41
2016-11-19T01:37:28.443Z,54.5
2016-11-19T01:38:28.426Z,54.41
2016-11-19T01:39:28.411Z,54.5
2016-11-19T01:40:28.084Z,54.41
2016-11-19T01:41:28.079Z,54.5
2016-11-19T01:42:28.361Z,54.31
2016-11-19T01:43:28.346Z,54.31
2016-11-19T01:44:28.327Z,54.22
2016-11-19T01:45:28.346Z,54.31
2016-11-19T01:46:28.294Z,54.41
2016-11-19T01:47:28.277Z,54.41
2016-11-19T01:48:28.264Z,54.5
2016-11-19T01:49:28.247Z,54.5
2016-11-19T01:50:28.232Z,53.92
2016-11-19T01:51:28.212Z,53.83
2016-11-19T01:52:27.883Z,53.92
2016-11-19T01:53:28.181Z,53.83
2016-11-19T01:54:28.164Z,54.31
2016-11-19T01:55:28.148Z,54.31
2016-11-19T01:56:28.138Z,54.41
2016-11-19T01:57:28.111Z,54.5
2016-11-19T01:58:28.098Z,54.5
2016-11-19T01:59:28.083Z,54.41
2016-11-19T02:00:28.063Z,53.83
2016-11-19T02:01:28.050Z,53.83
2016-11-19T02:02:28.033Z,54.02
2016-11-19T02:03:28.019Z,53.74
2016-11-19T02:04:28.003Z,53.64
2016-11-19T02:05:27.989Z,53.45
2016-11-19T02:06:27.969Z,53.92
2016-11-19T02:07:27.950Z,54.02
2016-11-19T02:08:27.926Z,54.02
2016-11-19T02:09:27.918Z,53.92
2016-11-19T02:10:27.902Z,53.54
2016-11-19T02:11:27.879Z,53.45
2016-11-19T02:12:27.866Z,53.45
2016-11-19T02:13:27.846Z,53.74
2016-11-19T02:14:27.835Z,53.45
2016-11-19T02:15:27.818Z,53.54
2016-11-19T02:16:27.801Z,53.64
2016-11-19T02:17:27.786Z,53.54
2016-11-19T02:18:27.770Z,53.64
2016-11-19T02:19:27.751Z,54.12
2016-11-19T02:20:27.734Z,53.45
2016-11-19T02:21:27.711Z,53.74
2016-11-19T02:22:27.383Z,54.02
2016-11-19T02:23:27.682Z,54.12
2016-11-19T02:24:27.668Z,53.92
2016-11-19T02:25:27.648Z,54.31
2016-11-19T02:26:27.630Z,55.56
2016-11-19T02:27:27.618Z,55.66
2016-11-19T02:28:27.601Z,55.66
2016-11-19T02:29:27.584Z,55.56
2016-11-19T02:30:27.569Z,55.56
2016-11-19T02:31:27.547Z,55.37
2016-11-19T02:32:27.532Z,55.94
2016-11-19T02:33:27.517Z,55.46
2016-11-19T02:34:27.505Z,55.94
2016-11-19T02:35:27.484Z,55.46
2016-11-19T02:36:27.469Z,55.56
2016-11-19T02:37:27.451Z,55.85
2016-11-19T02:38:27.439Z,55.56
2016-11-19T02:39:27.415Z,55.46
2016-11-19T02:40:27.398Z,55.56
2016-11-19T02:41:27.075Z,55.46
2016-11-19T02:42:27.368Z,55.18
2016-11-19T02:43:27.357Z,55.56
2016-11-19T02:44:27.337Z,55.94
2016-11-19T02:45:27.322Z,55.56
2016-11-19T02:46:27.301Z,55.56
2016-11-19T02:47:26.970Z,55.56
2016-11-19T02:48:27.268Z,55.56
2016-11-19T02:49:27.251Z,55.56
2016-11-19T02:50:27.234Z,55.56
2016-11-19T02:51:27.213Z,55.76
2016-11-19T02:52:27.200Z,55.56
2016-11-19T02:53:27.183Z,55.37
2016-11-19T02:54:27.172Z,55.94
2016-11-19T02:55:27.153Z,55.56
2016-11-19T02:56:27.141Z,55.66
2016-11-19T02:57:27.122Z,55.76
2016-11-19T02:58:27.105Z,55.56
2016-11-19T02:59:27.089Z,55.85
2016-11-19T03:00:27.073Z,55.76
2016-11-19T03:01:27.053Z,55.85
2016-11-19T03:02:26.720Z,55.46
2016-11-19T03:03:27.023Z,55.76
2016-11-19T03:04:27.008Z,55.76
2016-11-19T03:05:26.992Z,55.56
2016-11-19T03:06:26.975Z,55.56
2016-11-19T03:07:26.963Z,55.66
2016-11-19T03:08:26.939Z,55.56
2016-11-19T03:09:26.924Z,55.66
2016-11-19T03:10:26.908Z,55.56
2016-11-19T03:11:26.883Z,55.85
2016-11-19T03:12:26.880Z,55.56
2016-11-19T03:13:26.857Z,55.85
2016-11-19T03:14:26.844Z,55.85
2016-11-19T03:15:26.822Z,55.66
2016-11-19T03:16:26.809Z,55.56
2016-11-19T03:17:26.788Z,55.37
2016-11-19T03:18:26.775Z,55.76
2016-11-19T03:19:26.756Z,55.56
2016-11-19T03:20:26.734Z,55.46
2016-11-19T03:21:26.728Z,55.66
2016-11-19T03:22:26.387Z,55.66
2016-11-19T03:23:26.685Z,55.76
2016-11-19T03:24:26.673Z,55.66
2016-11-19T03:25:26.660Z,55.66
2016-11-19T03:26:26.645Z,55.56
2016-11-19T03:27:26.628Z,55.46
2016-11-19T03:28:26.615Z,55.46
2016-11-19T03:29:26.619Z,55.76
2016-11-19T03:30:26.580Z,55.76
2016-11-19T03:31:26.559Z,56.04
2016-11-19T03:32:26.544Z,55.66
2016-11-19T03:33:26.217Z,55.46
2016-11-19T03:34:26.505Z,55.37
2016-11-19T03:35:26.488Z,55.56
2016-11-19T03:36:26.467Z,55.66
2016-11-19T03:37:26.456Z,55.66
2016-11-19T03:38:26.434Z,55.46
2016-11-19T03:39:26.423Z,55.46
2016-11-19T03:40:26.408Z,55.46
2016-11-19T03:41:26.393Z,55.66
2016-11-19T03:42:26.376Z,55.76
2016-11-19T03:43:26.358Z,55.46
2016-11-19T03:44:26.339Z,55.46
2016-11-19T03:45:26.319Z,55.56
2016-11-19T03:46:26.309Z,55.66
2016-11-19T03:47:26.292Z,55.46
2016-11-19T03:48:26.274Z,55.46
2016-11-19T03:49:26.257Z,55.56
2016-11-19T03:50:25.926Z,55.46
2016-11-19T03:51:26.225Z,55.46
2016-11-19T03:52:26.202Z,55.56
2016-11-19T03:53:26.189Z,55.66
2016-11-19T03:54:25.859Z,55.56
2016-11-19T03:55:26.158Z,55.56
2016-11-19T03:56:26.136Z,55.56
2016-11-19T03:57:26.125Z,55.56
2016-11-19T03:58:26.104Z,55.66
2016-11-19T03:59:25.775Z,55.46
2016-11-19T04:00:26.072Z,55.46
2016-11-19T04:01:26.053Z,55.46
2016-11-19T04:02:26.041Z,55.66
2016-11-19T04:03:26.024Z,55.46
2016-11-19T04:04:26.007Z,55.76
2016-11-19T04:05:25.996Z,55.76
2016-11-19T04:06:25.976Z,55.56
2016-11-19T04:07:25.958Z,55.66
2016-11-19T04:08:25.940Z,55.66
2016-11-19T04:09:25.929Z,55.66
2016-11-19T04:10:25.908Z,55.46
2016-11-19T04:11:25.887Z,55.76
2016-11-19T04:12:25.873Z,55.66
2016-11-19T04:13:25.855Z,55.66
2016-11-19T04:14:25.887Z,55.76
2016-11-19T04:15:25.824Z,55.76
2016-11-19T04:16:25.825Z,55.76
2016-11-19T04:17:25.791Z,55.76
2016-11-19T04:18:25.770Z,55.66
2016-11-19T04:19:25.755Z,55.66
2016-11-19T04:20:25.740Z,55.56
2016-11-19T04:21:25.725Z,55.66
2016-11-19T04:22:25.709Z,55.94
2016-11-19T04:23:25.690Z,55.37
2016-11-19T04:24:25.678Z,55.66
2016-11-19T04:25:25.660Z,55.46
2016-11-19T04:26:25.639Z,55.66
2016-11-19T04:27:25.622Z,55.85
2016-11-19T04:28:25.604Z,55.66
2016-11-19T04:29:25.589Z,55.94
2016-11-19T04:30:25.572Z,55.56
2016-11-19T04:31:25.552Z,55.56
2016-11-19T04:32:25.543Z,55.85
2016-11-19T04:33:25.520Z,56.04
2016-11-19T04:34:25.511Z,55.94
2016-11-19T04:35:25.498Z,55.56
2016-11-19T04:36:25.479Z,55.66
2016-11-19T04:37:25.456Z,55.66
2016-11-19T04:38:25.440Z,55.46
2016-11-19T04:39:25.423Z,55.94
2016-11-19T04:40:25.410Z,55.56
2016-11-19T04:41:25.391Z,55.46
2016-11-19T04:42:25.377Z,55.66
2016-11-19T04:43:25.353Z,55.56
2016-11-19T04:44:25.348Z,55.56
2016-11-19T04:45:25.352Z,55.56
2016-11-19T04:46:25.303Z,56.04
2016-11-19T04:47:25.288Z,55.46
2016-11-19T04:48:25.267Z,55.37
2016-11-19T04:49:25.260Z,55.37
2016-11-19T04:50:25.240Z,55.66
2016-11-19T04:51:25.219Z,55.66
2016-11-19T04:52:25.208Z,55.76
2016-11-19T04:53:25.196Z,55.85
2016-11-19T04:54:25.178Z,55.66
2016-11-19T04:55:25.154Z,55.66
2016-11-19T04:56:25.140Z,55.85
2016-11-19T04:57:25.123Z,55.66
2016-11-19T04:58:25.109Z,55.66
2016-11-19T04:59:25.089Z,55.85
2016-11-19T05:00:25.072Z,55.85
2016-11-19T05:01:25.053Z,56.14
2016-11-19T05:02:25.037Z,55.66
2016-11-19T05:03:25.020Z,55.63
2016-11-19T05:04:25.005Z,55.63
2016-11-19T05:05:24.992Z,55.44
2016-11-19T05:06:24.971Z,55.56
2016-11-19T05:07:24.950Z,55.56
2016-11-19T05:08:24.940Z,55.18
2016-11-19T05:09:24.917Z,55.56
2016-11-19T05:10:24.908Z,54.89
2016-11-19T05:11:24.891Z,54.34
2016-11-19T05:12:24.870Z,54.53
2016-11-19T05:13:24.858Z,54.34
2016-11-19T05:14:24.832Z,54.05
2016-11-19T05:15:24.815Z,54.34
2016-11-19T05:16:24.810Z,54.43
2016-11-19T05:17:24.783Z,53.86
2016-11-19T05:18:24.802Z,53.5
2016-11-19T05:19:24.753Z,53.59
2016-11-19T05:20:24.738Z,53.69
2016-11-19T05:21:24.724Z,53.31
2016-11-19T05:22:24.703Z,53.11
2016-11-19T05:23:24.686Z,53.21
2016-11-19T05:24:24.665Z,53.11
2016-11-19T05:25:24.654Z,53.4
2016-11-19T05:26:24.631Z,53.4
2016-11-19T05:27:24.622Z,53.4
2016-11-19T05:28:24.604Z,53.21
2016-11-19T05:29:24.591Z,53.31
2016-11-19T05:30:24.576Z,53.4
2016-11-19T05:31:24.558Z,53.4
2016-11-19T05:32:24.542Z,53.69
2016-11-19T05:33:24.524Z,53.31
2016-11-19T05:34:24.507Z,53.88
2016-11-19T05:35:24.486Z,53.5
2016-11-19T05:36:24.468Z,53.5
2016-11-19T05:37:24.459Z,53.88
2016-11-19T05:38:24.440Z,53.78
2016-11-19T05:39:24.427Z,53.4
2016-11-19T05:40:24.404Z,53.69
2016-11-19T05:41:24.401Z,53.4
2016-11-19T05:42:24.376Z,53.69
2016-11-19T05:43:24.354Z,53.78
2016-11-19T05:44:24.339Z,53.78
2016-11-19T05:45:24.322Z,53.5
2016-11-19T05:46:24.311Z,53.4
2016-11-19T05:47:24.292Z,53.88
2016-11-19T05:48:24.280Z,53.69
2016-11-19T05:49:24.255Z,53.5
2016-11-19T05:50:24.246Z,53.59
2016-11-19T05:51:24.224Z,53.78
2016-11-19T05:52:24.213Z,53.88
2016-11-19T05:53:24.206Z,53.69
2016-11-19T05:54:24.213Z,53.69
2016-11-19T05:55:24.155Z,53.69
2016-11-19T05:56:24.146Z,53.69
2016-11-19T05:57:23.811Z,53.4
2016-11-19T05:58:24.108Z,53.78
2016-11-19T05:59:24.094Z,53.69
2016-11-19T06:00:24.075Z,53.88
2016-11-19T06:01:24.062Z,53.4
2016-11-19T06:02:24.044Z,53.59
2016-11-19T06:03:24.033Z,53.5
2016-11-19T06:04:24.014Z,53.5
2016-11-19T06:05:23.998Z,53.81
2016-11-19T06:06:23.978Z,53.81
2016-11-19T06:07:23.968Z,53.88
2016-11-19T06:08:23.949Z,53.91
2016-11-19T06:09:23.615Z,53.4
2016-11-19T06:10:23.916Z,53.88
2016-11-19T06:11:23.897Z,53.78
2016-11-19T06:12:23.881Z,53.53
2016-11-19T06:13:23.860Z,53.31
2016-11-19T06:14:23.854Z,53.43
2016-11-19T06:15:23.831Z,53.53
2016-11-19T06:16:23.823Z,53.59
2016-11-19T06:17:23.807Z,53.81
2016-11-19T06:18:23.784Z,53.62
2016-11-19T06:19:23.770Z,53.69
2016-11-19T06:20:23.752Z,53.59
2016-11-19T06:21:23.733Z,53.72
2016-11-19T06:22:23.720Z,53.43
2016-11-19T06:23:23.390Z,53.62
2016-11-19T06:24:23.720Z,53.43
2016-11-19T06:25:23.671Z,53.43
2016-11-19T06:26:23.653Z,53.62
2016-11-19T06:27:23.643Z,53.53
2016-11-19T06:28:23.621Z,53.53
2016-11-19T06:29:23.603Z,53.43
2016-11-19T06:30:23.598Z,53.72
2016-11-19T06:31:23.580Z,53.43
2016-11-19T06:32:23.557Z,53.53
2016-11-19T06:33:23.538Z,53.62
2016-11-19T06:34:23.210Z,53.43
2016-11-19T06:35:23.505Z,53.59
2016-11-19T06:36:23.494Z,53.69
2016-11-19T06:37:23.479Z,53.4
2016-11-19T06:38:23.465Z,53.43
2016-11-19T06:39:23.131Z,53.43
2016-11-19T06:40:23.431Z,53.33
2016-11-19T06:41:23.407Z,53.53
2016-11-19T06:42:23.400Z,53.62
2016-11-19T06:43:23.379Z,53.53
2016-11-19T06:44:23.367Z,53.14
2016-11-19T06:45:23.348Z,53.33
2016-11-19T06:46:23.017Z,53.14
2016-11-19T06:47:23.314Z,53.14
2016-11-19T06:48:23.294Z,53.53
2016-11-19T06:49:23.286Z,53.33
2016-11-19T06:50:23.268Z,53.14
2016-11-19T06:51:23.248Z,53.43
2016-11-19T06:52:23.233Z,53.62
2016-11-19T06:53:23.222Z,53.62
2016-11-19T06:54:23.223Z,53.62
2016-11-19T06:55:23.188Z,53.72
2016-11-19T06:56:23.170Z,53.53
2016-11-19T06:57:23.159Z,53.43
2016-11-19T06:58:23.138Z,53.43
2016-11-19T06:59:23.120Z,53.43
2016-11-19T07:00:23.102Z,53.33
2016-11-19T07:01:23.090Z,53.53
2016-11-19T07:02:23.073Z,53.62
2016-11-19T07:03:23.063Z,53.62
2016-11-19T07:04:23.044Z,53.53
2016-11-19T07:05:23.027Z,53.43
2016-11-19T07:06:23.012Z,53.43
2016-11-19T07:07:22.988Z,53.43
2016-11-19T07:08:22.975Z,53.43
2016-11-19T07:09:22.956Z,53.62
2016-11-19T07:10:22.622Z,53.62
2016-11-19T07:11:22.927Z,53.53
2016-11-19T07:12:22.910Z,53.05
2016-11-19T07:13:22.899Z,53.62
2016-11-19T07:14:22.880Z,53.23
2016-11-19T07:15:22.860Z,53.43
2016-11-19T07:16:22.527Z,53.62
2016-11-19T07:17:22.835Z,53.72
2016-11-19T07:18:22.815Z,53.53
2016-11-19T07:19:22.813Z,53.53
2016-11-19T07:20:22.784Z,53.53
2016-11-19T07:21:22.771Z,53.53
2016-11-19T07:22:22.746Z,53.53
2016-11-19T07:23:22.733Z,53.53
2016-11-19T07:24:22.718Z,53.43
2016-11-19T07:25:22.387Z,53.62
2016-11-19T07:26:22.687Z,53.53
2016-11-19T07:27:22.670Z,53.53
2016-11-19T07:28:22.655Z,53.43
2016-11-19T07:29:22.636Z,53.43
2016-11-19T07:30:22.619Z,53.43
2016-11-19T07:31:22.609Z,53.33
2016-11-19T07:32:22.595Z,53.43
2016-11-19T07:33:22.580Z,53.43
2016-11-19T07:34:22.566Z,53.23
2016-11-19T07:35:22.577Z,53.53
2016-11-19T07:36:22.529Z,53.62
2016-11-19T07:37:22.513Z,53.62
2016-11-19T07:38:22.504Z,52.85
2016-11-19T07:39:22.478Z,53.43
2016-11-19T07:40:22.471Z,53.05
2016-11-19T07:41:22.132Z,53.23
2016-11-19T07:42:22.117Z,52.85
2016-11-19T07:43:22.420Z,53.05
2016-11-19T07:44:22.398Z,53.14
2016-11-19T07:45:22.070Z,53.05
2016-11-19T07:46:22.381Z,53.05
2016-11-19T07:47:22.356Z,52.95
2016-11-19T07:48:22.342Z,53.23
2016-11-19T07:49:22.323Z,53.05
2016-11-19T07:50:22.306Z,52.85
2016-11-19T07:51:22.297Z,53.05
2016-11-19T07:52:22.273Z,52.85
2016-11-19T07:53:22.266Z,53.05
2016-11-19T07:54:22.246Z,53.05
2016-11-19T07:55:22.237Z,53.05
2016-11-19T07:56:22.212Z,52.85
2016-11-19T07:57:22.192Z,52.66
2016-11-19T07:58:22.180Z,52.85
2016-11-19T07:59:22.162Z,52.66
2016-11-19T08:00:21.833Z,53.23
2016-11-19T08:01:22.132Z,53.33
2016-11-19T08:02:22.128Z,53.33
2016-11-19T08:03:22.105Z,53.05
2016-11-19T08:04:22.088Z,53.05
2016-11-19T08:05:22.073Z,53.14
2016-11-19T08:06:22.058Z,53.53
2016-11-19T08:07:22.038Z,53.05
2016-11-19T08:08:22.024Z,53.23
2016-11-19T08:09:22.009Z,52.85
2016-11-19T08:10:21.991Z,52.95
2016-11-19T08:11:21.984Z,52.85
2016-11-19T08:12:21.955Z,52.75
2016-11-19T08:13:21.942Z,52.75
2016-11-19T08:14:21.923Z,52.85
2016-11-19T08:15:21.912Z,53.23
2016-11-19T08:16:21.898Z,53.14
2016-11-19T08:17:21.880Z,52.75
2016-11-19T08:18:21.862Z,52.95
2016-11-19T08:19:21.844Z,53.07
2016-11-19T08:20:21.832Z,53.17
2016-11-19T08:21:21.820Z,52.85
2016-11-19T08:22:21.799Z,52.75
2016-11-19T08:23:21.789Z,52.95
2016-11-19T08:24:21.449Z,53.05
2016-11-19T08:25:21.754Z,53.05
2016-11-19T08:26:21.735Z,53.27
2016-11-19T08:27:21.721Z,52.95
2016-11-19T08:28:21.704Z,52.75
2016-11-19T08:29:21.689Z,53.14
2016-11-19T08:30:21.674Z,52.69
2016-11-19T08:31:21.661Z,52.56
2016-11-19T08:32:21.642Z,53.14
2016-11-19T08:33:21.624Z,53.05
2016-11-19T08:34:21.612Z,52.95
2016-11-19T08:35:21.594Z,52.59
2016-11-19T08:36:21.582Z,53.23
2016-11-19T08:37:21.559Z,53.14
2016-11-19T08:38:21.548Z,52.85
2016-11-19T08:39:21.216Z,53.14
2016-11-19T08:40:21.514Z,52.95
2016-11-19T08:41:21.498Z,53.14
2016-11-19T08:42:21.165Z,52.66
2016-11-19T08:43:21.470Z,52.85
2016-11-19T08:44:21.450Z,52.95
2016-11-19T08:45:21.437Z,53.07
2016-11-19T08:46:21.420Z,52.37
2016-11-19T08:47:21.406Z,52.37
2016-11-19T08:48:21.388Z,52.69
2016-11-19T08:49:21.403Z,52.66
2016-11-19T08:50:21.348Z,52.85
2016-11-19T08:51:21.339Z,53.05
2016-11-19T08:52:21.323Z,53.17
2016-11-19T08:53:21.308Z,52.56
2016-11-19T08:54:21.298Z,53.05
2016-11-19T08:55:21.276Z,52.49
2016-11-19T08:56:21.262Z,52.66
2016-11-19T08:57:21.245Z,51.89
2016-11-19T08:58:21.228Z,51.89
2016-11-19T08:59:21.209Z,49
2016-11-19T09:00:21.198Z,49.68
2016-11-19T09:01:21.186Z,48.71
2016-11-19T09:02:21.167Z,48.9
2016-11-19T09:03:21.148Z,47.94
2016-11-19T09:04:21.133Z,48.52
2016-11-19T09:05:21.120Z,48.52
2016-11-19T09:06:21.106Z,47.94
2016-11-19T09:07:21.093Z,47.56
2016-11-19T09:08:21.071Z,47.56
2016-11-19T09:09:21.057Z,47.36
2016-11-19T09:10:20.732Z,46.5
2016-11-19T09:11:21.023Z,46.31
2016-11-19T09:12:21.007Z,47.36
2016-11-19T09:13:20.992Z,46.21
2016-11-19T09:14:20.975Z,45.73
2016-11-19T09:15:20.962Z,46.88
2016-11-19T09:16:20.943Z,45.44
2016-11-19T09:17:20.941Z,45.83
2016-11-19T09:18:20.908Z,45.34
2016-11-19T09:19:20.898Z,44.76
2016-11-19T09:20:20.882Z,45.32
2016-11-19T09:21:20.551Z,46.59
2016-11-19T09:22:20.849Z,46.5
2016-11-19T09:23:20.829Z,46.28
2016-11-19T09:24:20.817Z,44.84
2016-11-19T09:25:20.484Z,46.06
2016-11-19T09:26:20.784Z,47.61
2016-11-19T09:27:20.775Z,48.28
2016-11-19T09:28:20.753Z,48.21
2016-11-19T09:29:20.739Z,48.97
2016-11-19T09:30:20.720Z,48.59
2016-11-19T09:31:20.706Z,48.59
2016-11-19T09:32:20.689Z,48.69
2016-11-19T09:33:20.673Z,48.9
2016-11-19T09:34:20.691Z,48.79
2016-11-19T09:35:20.642Z,49.1
2016-11-19T09:36:20.647Z,48.9
2016-11-19T09:37:20.612Z,49
2016-11-19T09:38:20.586Z,48.9
2016-11-19T09:39:20.260Z,48.9
2016-11-19T09:40:20.556Z,49
2016-11-19T09:41:20.546Z,48.81
2016-11-19T09:42:20.527Z,49
2016-11-19T09:43:20.516Z,49
2016-11-19T09:44:20.495Z,49.1
2016-11-19T09:45:20.477Z,49.29
2016-11-19T09:46:20.461Z,49.29
2016-11-19T09:47:20.448Z,49.1
2016-11-19T09:48:20.435Z,49
2016-11-19T09:49:20.424Z,49.1
2016-11-19T09:50:20.400Z,44.48
2016-11-19T09:51:20.385Z,45.95
2016-11-19T09:52:20.366Z,47.27
2016-11-19T09:53:20.354Z,47.08
2016-11-19T09:54:20.020Z,48.45
2016-11-19T09:55:20.324Z,49.24
2016-11-19T09:56:20.303Z,49.15
2016-11-19T09:57:20.279Z,49.27
2016-11-19T09:58:20.266Z,49.17
2016-11-19T09:59:20.255Z,48.97
2016-11-19T10:00:20.238Z,48.97
2016-11-19T10:01:20.218Z,49.07
2016-11-19T10:02:20.214Z,48.9
2016-11-19T10:03:20.188Z,49.1
2016-11-19T10:04:20.168Z,49.38
2016-11-19T10:05:19.831Z,49.29
2016-11-19T10:06:20.140Z,49.1
2016-11-19T10:07:20.135Z,49.19
2016-11-19T10:08:20.109Z,48.9
2016-11-19T10:09:20.092Z,49.29
2016-11-19T10:10:20.074Z,49.38
2016-11-19T10:11:20.063Z,49.19
2016-11-19T10:12:20.046Z,49.19
2016-11-19T10:13:20.024Z,49.19
2016-11-19T10:14:20.043Z,49.29
2016-11-19T10:15:19.994Z,49.48
2016-11-19T10:16:19.981Z,49.48
2016-11-19T10:17:19.967Z,49.29
2016-11-19T10:18:19.950Z,49.68
2016-11-19T10:19:19.939Z,49.68
2016-11-19T10:20:19.914Z,49.58
2016-11-19T10:21:19.901Z,49.29
2016-11-19T10:22:19.884Z,49.58
2016-11-19T10:23:19.874Z,49.58
2016-11-19T10:24:19.849Z,49.58
2016-11-19T10:25:19.841Z,49.38
2016-11-19T10:26:19.815Z,49.68
2016-11-19T10:27:19.809Z,49.48
2016-11-19T10:28:19.798Z,49.29
2016-11-19T10:29:19.770Z,49.58
2016-11-19T10:30:19.755Z,49.87
2016-11-19T10:31:19.738Z,49.87
2016-11-19T10:32:19.721Z,49.77
2016-11-19T10:33:19.710Z,49.68
2016-11-19T10:34:19.697Z,49.87
2016-11-19T10:35:19.361Z,50.06
2016-11-19T10:36:19.665Z,49.87
2016-11-19T10:37:19.642Z,49.87
2016-11-19T10:38:19.635Z,49.96
2016-11-19T10:39:19.296Z,49.87
2016-11-19T10:40:19.595Z,49.87
2016-11-19T10:41:19.576Z,49.87
2016-11-19T10:42:19.558Z,49.48
2016-11-19T10:43:19.551Z,49.68
2016-11-19T10:44:19.532Z,49.68
2016-11-19T10:45:19.515Z,49.58
2016-11-19T10:46:19.503Z,49.68
2016-11-19T10:47:19.490Z,49.38
2016-11-19T10:48:19.469Z,49.58
2016-11-19T10:49:19.449Z,49.58
2016-11-19T10:50:19.432Z,49.58
2016-11-19T10:51:19.419Z,49.58
2016-11-19T10:52:19.402Z,49.96
2016-11-19T10:53:19.080Z,49.96
2016-11-19T10:54:19.375Z,50.06
2016-11-19T10:55:19.358Z,50.06
2016-11-19T10:56:19.340Z,49.96
2016-11-19T10:57:19.329Z,50.06
2016-11-19T10:58:19.312Z,50.06
2016-11-19T10:59:19.292Z,50.06
2016-11-19T11:00:19.277Z,49.68
2016-11-19T11:01:19.258Z,50.25
2016-11-19T11:02:19.253Z,49.68
2016-11-19T11:03:19.228Z,49.68
2016-11-19T11:04:19.217Z,49.96
2016-11-19T11:05:19.196Z,49.96
2016-11-19T11:06:19.183Z,49.87
2016-11-19T11:07:19.164Z,49.96
2016-11-19T11:08:19.150Z,49.87
2016-11-19T11:09:19.136Z,50.15
2016-11-19T11:10:19.118Z,49.68
2016-11-19T11:11:18.783Z,49.68
2016-11-19T11:12:19.090Z,49.89
2016-11-19T11:13:18.754Z,49.87
2016-11-19T11:14:19.051Z,49.87
2016-11-19T11:15:18.724Z,50.06
2016-11-19T11:16:19.020Z,49.79
2016-11-19T11:17:19.005Z,49.48
2016-11-19T11:18:18.991Z,49.7
2016-11-19T11:19:18.975Z,49.58
2016-11-19T11:20:18.962Z,49.96
2016-11-19T11:21:18.942Z,50.15
2016-11-19T11:22:18.925Z,50.15
2016-11-19T11:23:18.909Z,50.15
2016-11-19T11:24:18.896Z,50.06
2016-11-19T11:25:18.565Z,50.35
2016-11-19T11:26:18.858Z,49.87
2016-11-19T11:27:18.845Z,49.96
2016-11-19T11:28:18.829Z,50.06
2016-11-19T11:29:18.500Z,49.87
2016-11-19T11:30:18.799Z,50.06
2016-11-19T11:31:18.782Z,50.45
2016-11-19T11:32:18.450Z,50.06
2016-11-19T11:33:18.759Z,50.25
2016-11-19T11:34:18.740Z,49.77
2016-11-19T11:35:18.718Z,50.35
2016-11-19T11:36:18.701Z,49.77
2016-11-19T11:37:18.377Z,49.68
2016-11-19T11:38:18.665Z,49.58
2016-11-19T11:39:18.655Z,49.99
2016-11-19T11:40:18.642Z,49.58
2016-11-19T11:41:18.623Z,50.06
2016-11-19T11:42:18.608Z,49.99
2016-11-19T11:43:18.588Z,49.87
2016-11-19T11:44:18.575Z,49.87
2016-11-19T11:45:18.560Z,49.89
2016-11-19T11:46:18.542Z,49.68
2016-11-19T11:47:18.521Z,49.77
2016-11-19T11:48:18.514Z,50.06
2016-11-19T11:49:18.497Z,50.06
2016-11-19T11:50:18.477Z,49.7
2016-11-19T11:51:18.464Z,49.51
2016-11-19T11:52:18.449Z,49.6
2016-11-19T11:53:18.439Z,49.29
2016-11-19T11:54:18.415Z,50.45
2016-11-19T11:55:18.083Z,49.96
2016-11-19T11:56:18.386Z,49.77
2016-11-19T11:57:18.055Z,49.79
2016-11-19T11:58:18.362Z,49.68
2016-11-19T11:59:18.020Z,49.89
2016-11-19T12:00:18.325Z,49.58
2016-11-19T12:01:18.306Z,49.7
2016-11-19T12:02:18.289Z,49.89
2016-11-19T12:03:18.268Z,49.7
2016-11-19T12:04:18.260Z,49.79
2016-11-19T12:05:18.243Z,49.96
2016-11-19T12:06:18.232Z,49.89
2016-11-19T12:07:17.896Z,50.09
2016-11-19T12:08:18.196Z,49.6
2016-11-19T12:09:18.178Z,49.32
2016-11-19T12:10:18.165Z,49.41
2016-11-19T12:11:17.831Z,49.22
2016-11-19T12:12:18.138Z,49.51
2016-11-19T12:13:18.117Z,49.41
2016-11-19T12:14:18.106Z,49.41
2016-11-19T12:15:18.089Z,49.6
2016-11-19T12:16:18.072Z,49.6
2016-11-19T12:17:18.055Z,49.32
2016-11-19T12:18:18.036Z,49.7
2016-11-19T12:19:18.023Z,49.51
2016-11-19T12:20:18.007Z,49.41
2016-11-19T12:21:17.988Z,49.41
2016-11-19T12:22:17.661Z,49.51
2016-11-19T12:23:17.956Z,49.6
2016-11-19T12:24:17.953Z,49.19
2016-11-19T12:25:17.961Z,49.51
2016-11-19T12:26:17.936Z,49.32
2016-11-19T12:27:17.892Z,49.22
2016-11-19T12:28:17.876Z,49.12
2016-11-19T12:29:17.858Z,49.12
2016-11-19T12:30:17.879Z,49.51
2016-11-19T12:31:17.834Z,49.02
2016-11-19T12:32:17.815Z,49.02
2016-11-19T12:33:17.801Z,49.22
2016-11-19T12:34:17.784Z,49.32
2016-11-19T12:35:17.769Z,49.41
2016-11-19T12:36:17.754Z,49.41
2016-11-19T12:37:17.425Z,49.22
2016-11-19T12:38:17.724Z,49.22
2016-11-19T12:39:17.708Z,49.02
2016-11-19T12:40:17.692Z,49.32
2016-11-19T12:41:17.670Z,49.22
2016-11-19T12:42:17.661Z,49.48
2016-11-19T12:43:17.643Z,49.68
2016-11-19T12:44:17.632Z,49.48
2016-11-19T12:45:17.607Z,49.12
2016-11-19T12:46:17.602Z,49.22
2016-11-19T12:47:17.574Z,49.38
2016-11-19T12:48:17.560Z,48.93
2016-11-19T12:49:17.552Z,49.02
2016-11-19T12:50:17.529Z,49.02
2016-11-19T12:51:17.513Z,49.12
2016-11-19T12:52:17.504Z,49.41
2016-11-19T12:53:17.164Z,49.32
2016-11-19T12:54:17.465Z,49.7